createdAt,value
2023-05-19T00:01:25.111Z,3.65
2023-05-19T00:03:57.583Z,2.75
2023-05-19T00:06:31.635Z,2.63
2023-05-19T00:09:01.510Z,2.95
2023-05-19T00:14:10.566Z,2.42
2023-05-19T00:16:41.023Z,1.63
2023-05-19T00:19:12.888Z,3.58
2023-05-19T00:21:42.252Z,2.58
2023-05-19T00:24:08.870Z,2.20
2023-05-19T00:26:35.517Z,3.13
2023-05-19T00:29:02.180Z,2.85
2023-05-19T00:31:28.897Z,3.38
2023-05-19T00:34:01.554Z,1.80
2023-05-19T00:36:29.595Z,3.23
2023-05-19T00:38:56.383Z,3.28
2023-05-19T00:41:23.023Z,2.00
2023-05-19T00:43:52.215Z,3.85
2023-05-19T00:46:20.865Z,2.70
2023-05-19T00:48:47.569Z,3.17
2023-05-19T00:51:18.244Z,2.13
2023-05-19T00:53:49.083Z,1.95
2023-05-19T00:56:19.390Z,3.15
2023-05-19T00:58:46.149Z,1.95
2023-05-19T01:01:14.550Z,2.78
2023-05-19T01:03:44.685Z,2.50
2023-05-19T01:06:12.322Z,2.92
2023-05-19T01:08:39.299Z,2.70
2023-05-19T01:11:07.144Z,4.43
2023-05-19T01:13:34.825Z,2.95
2023-05-19T01:16:07.110Z,3.75
2023-05-19T01:18:56.230Z,3.13
2023-05-19T01:21:55.552Z,2.55
2023-05-19T01:24:32.367Z,4.50
2023-05-19T01:27:23.771Z,4.20
2023-05-19T01:30:10.703Z,2.88
2023-05-19T01:32:38.635Z,3.85
2023-05-19T01:35:05.985Z,1.70
2023-05-19T01:37:32.654Z,3.55
2023-05-19T01:40:00.138Z,2.47
2023-05-19T01:42:27.451Z,2.67
2023-05-19T01:44:54.403Z,3.65
2023-05-19T01:47:21.053Z,4.68
2023-05-19T01:49:47.659Z,3.70
2023-05-19T01:52:14.269Z,3.42
2023-05-19T01:54:40.920Z,3.38
2023-05-19T01:57:25.060Z,3.58
2023-05-19T02:00:47.103Z,4.45
2023-05-19T02:03:42.053Z,3.42
2023-05-19T02:06:41.402Z,2.45
2023-05-19T02:09:26.100Z,3.47
2023-05-19T02:12:12.556Z,3.65
2023-05-19T02:15:20.757Z,3.05
2023-05-19T02:17:50.732Z,3.92
2023-05-19T02:20:18.215Z,2.63
2023-05-19T02:22:45.308Z,3.47
2023-05-19T02:25:11.926Z,3.30
2023-05-19T02:27:38.975Z,5.18
2023-05-19T02:30:06.998Z,3.28
2023-05-19T02:32:33.809Z,3.05
2023-05-19T02:35:00.489Z,4.47
2023-05-19T02:37:28.686Z,3.00
2023-05-19T02:39:55.661Z,3.40
2023-05-19T02:42:22.262Z,3.85
2023-05-19T02:44:53.733Z,2.83
2023-05-19T02:47:20.324Z,4.07
2023-05-19T02:49:46.916Z,4.43
2023-05-19T02:52:13.519Z,3.53
2023-05-19T02:54:40.289Z,5.22
2023-05-19T02:57:09.910Z,4.03
2023-05-19T02:59:36.698Z,4.03
2023-05-19T03:02:03.400Z,4.43
2023-05-19T03:04:31.424Z,3.42
2023-05-19T03:06:58.006Z,5.50
2023-05-19T03:09:24.866Z,2.33
2023-05-19T03:11:51.525Z,3.35
2023-05-19T03:14:18.755Z,3.95
2023-05-19T03:16:45.723Z,2.72
2023-05-19T03:19:12.645Z,3.20
2023-05-19T03:21:39.384Z,3.72
2023-05-19T03:24:06.721Z,3.08
2023-05-19T03:26:33.356Z,2.50
2023-05-19T03:28:59.988Z,2.83
2023-05-19T03:31:26.856Z,3.63
2023-05-19T03:33:53.570Z,4.40
2023-05-19T03:36:20.248Z,2.55
2023-05-19T03:38:46.890Z,4.53
2023-05-19T03:41:13.495Z,2.63
2023-05-19T03:43:40.085Z,4.13
2023-05-19T03:46:06.701Z,3.63
2023-05-19T03:48:33.346Z,5.55
2023-05-19T03:51:01.559Z,4.60
2023-05-19T03:53:30.352Z,2.53
2023-05-19T03:55:57.052Z,4.47
2023-05-19T03:58:31.239Z,2.05
2023-05-19T04:01:00.122Z,3.53
2023-05-19T04:03:26.823Z,3.47
2023-05-19T04:05:53.511Z,3.38
2023-05-19T04:08:20.158Z,3.20
2023-05-19T04:10:46.762Z,4.03
2023-05-19T04:13:13.351Z,3.08
2023-05-19T04:15:41.069Z,2.80
2023-05-19T04:18:12.096Z,3.13
2023-05-19T04:20:38.843Z,4.25
2023-05-19T04:23:18.401Z,3.08
2023-05-19T04:25:51.747Z,3.78
2023-05-19T04:28:21.674Z,3.50
2023-05-19T04:30:51.724Z,3.45
2023-05-19T04:33:20.073Z,4.22
2023-05-19T04:35:46.686Z,3.60
2023-05-19T04:38:16.339Z,3.13
2023-05-19T04:40:43.540Z,3.80
2023-05-19T04:43:11.396Z,3.95
2023-05-19T04:45:38.278Z,3.97
2023-05-19T04:48:05.200Z,2.10
2023-05-19T04:50:35.427Z,4.13
2023-05-19T04:53:02.101Z,3.60
2023-05-19T04:55:28.787Z,3.30
2023-05-19T04:57:55.659Z,5.20
2023-05-19T05:00:22.258Z,2.45
2023-05-19T05:02:59.114Z,4.80
2023-05-19T05:05:25.818Z,3.10
2023-05-19T05:07:54.215Z,2.83
2023-05-19T05:10:21.777Z,3.60
2023-05-19T05:13:11.795Z,4.95
2023-05-19T05:15:47.250Z,3.65
2023-05-19T05:18:17.225Z,4.80
2023-05-19T05:20:44.656Z,5.90
2023-05-19T05:23:16.771Z,3.85
2023-05-19T05:25:45.137Z,7.40
2023-05-19T05:28:11.933Z,5.75
2023-05-19T05:30:38.851Z,3.22
2023-05-19T05:33:06.363Z,4.85
2023-05-19T05:35:33.198Z,4.25
2023-05-19T05:38:02.718Z,5.20
2023-05-19T05:40:29.504Z,5.32
2023-05-19T05:42:56.862Z,4.82
2023-05-19T05:45:23.577Z,6.93
2023-05-19T05:47:50.987Z,5.30
2023-05-19T05:50:18.309Z,5.63
2023-05-19T05:52:48.418Z,7.07
2023-05-19T05:55:17.525Z,6.25
2023-05-19T05:58:10.227Z,4.07
2023-05-19T06:00:43.461Z,6.90
2023-05-19T06:03:11.105Z,7.30
2023-05-19T06:05:41.843Z,6.25
2023-05-19T06:08:10.821Z,5.70
2023-05-19T06:10:58.776Z,6.72
2023-05-19T06:13:26.116Z,4.38
2023-05-19T06:15:52.935Z,4.80
2023-05-19T06:18:19.603Z,5.85
2023-05-19T06:20:46.254Z,7.18
2023-05-19T06:23:12.842Z,3.95
2023-05-19T06:25:39.473Z,4.85
2023-05-19T06:28:06.241Z,4.72
2023-05-19T06:30:33.536Z,4.93
2023-05-19T06:33:02.754Z,4.18
2023-05-19T06:35:30.410Z,8.38
2023-05-19T06:38:01.005Z,8.48
2023-05-19T06:40:30.874Z,11.50
2023-05-19T06:42:58.476Z,9.77
2023-05-19T06:45:25.167Z,6.68
2023-05-19T06:47:51.859Z,8.18
2023-05-19T06:50:18.556Z,6.60
2023-05-19T06:52:47.024Z,10.10
2023-05-19T06:55:16.650Z,7.65
2023-05-19T06:57:43.545Z,6.60
2023-05-19T07:00:13.845Z,5.70
2023-05-19T07:02:41.989Z,7.32
2023-05-19T07:05:09.245Z,8.20
2023-05-19T07:07:35.873Z,4.68
2023-05-19T07:10:02.562Z,5.85
2023-05-19T07:12:29.149Z,6.75
2023-05-19T07:14:55.850Z,5.63
2023-05-19T07:17:22.567Z,7.88
2023-05-19T07:19:51.666Z,4.22
2023-05-19T07:22:18.297Z,7.50
2023-05-19T07:24:45.054Z,13.10
2023-05-19T07:27:11.683Z,16.30
2023-05-19T07:29:38.259Z,10.98
2023-05-19T07:32:05.324Z,13.93
2023-05-19T07:34:31.910Z,16.65
2023-05-19T07:37:00.283Z,16.95
2023-05-19T07:39:29.634Z,17.15
2023-05-19T07:41:56.455Z,16.52
2023-05-19T07:44:23.868Z,16.10
2023-05-19T07:46:50.609Z,11.50
2023-05-19T07:49:17.253Z,13.10
2023-05-19T07:51:43.961Z,14.77
2023-05-19T07:54:10.599Z,14.23
2023-05-19T07:56:37.266Z,14.15
2023-05-19T07:59:04.382Z,11.32
2023-05-19T08:01:32.195Z,10.05
2023-05-19T08:03:58.893Z,11.50
2023-05-19T08:06:25.594Z,12.23
2023-05-19T08:08:52.438Z,13.25
2023-05-19T08:11:19.033Z,10.02
2023-05-19T08:13:48.709Z,9.00
2023-05-19T08:16:16.021Z,12.25
2023-05-19T08:18:42.749Z,12.20
2023-05-19T08:21:09.385Z,9.52
2023-05-19T08:23:37.398Z,11.70
2023-05-19T08:26:04.216Z,11.48
2023-05-19T08:28:30.955Z,8.65
2023-05-19T08:30:57.593Z,14.50
2023-05-19T08:33:24.507Z,12.85
2023-05-19T08:35:51.150Z,12.00
2023-05-19T08:38:18.559Z,13.32
2023-05-19T08:40:51.535Z,14.55
2023-05-19T08:43:18.197Z,12.25
2023-05-19T08:45:48.491Z,9.93
2023-05-19T08:48:17.100Z,14.40
2023-05-19T08:50:55.041Z,10.23
2023-05-19T08:53:33.900Z,11.38
2023-05-19T08:56:11.123Z,11.60
2023-05-19T08:58:43.761Z,10.77
2023-05-19T09:01:18.830Z,10.82
2023-05-19T09:03:46.886Z,9.10
2023-05-19T09:06:13.628Z,9.73
2023-05-19T09:08:44.088Z,8.48
2023-05-19T09:11:11.031Z,8.20
2023-05-19T09:13:37.774Z,11.23
2023-05-19T09:16:05.033Z,15.45
2023-05-19T09:18:31.906Z,11.20
2023-05-19T09:21:00.427Z,10.07
2023-05-19T09:23:29.650Z,11.30
2023-05-19T09:25:57.377Z,10.30
2023-05-19T09:28:29.420Z,8.63
2023-05-19T09:31:06.834Z,7.20
2023-05-19T09:33:35.699Z,5.90
2023-05-19T09:36:06.328Z,7.45
2023-05-19T09:38:33.132Z,11.10
2023-05-19T09:41:05.842Z,11.00
2023-05-19T09:43:34.532Z,9.90
2023-05-19T09:46:03.946Z,8.57
2023-05-19T09:48:30.653Z,8.65
2023-05-19T09:50:58.036Z,10.98
2023-05-19T09:53:25.445Z,7.57
2023-05-19T09:55:57.663Z,9.52
2023-05-19T09:58:24.512Z,11.07
2023-05-19T10:00:51.514Z,10.93
2023-05-19T10:03:18.875Z,10.75
2023-05-19T10:05:46.660Z,11.80
2023-05-19T10:08:14.288Z,10.93
2023-05-19T10:10:41.477Z,6.97
2023-05-19T10:13:13.607Z,7.82
2023-05-19T10:15:57.204Z,9.43
2023-05-19T10:18:26.181Z,7.80
2023-05-19T10:20:52.948Z,8.95
2023-05-19T10:23:21.811Z,9.90
2023-05-19T10:25:49.383Z,7.78
2023-05-19T10:28:17.498Z,8.40
2023-05-19T10:30:49.747Z,6.18
2023-05-19T10:33:18.197Z,7.10
2023-05-19T10:36:23.398Z,7.57
2023-05-19T10:39:08.390Z,6.90
2023-05-19T10:41:46.879Z,7.20
2023-05-19T10:44:19.465Z,6.93
2023-05-19T10:46:46.121Z,7.47
2023-05-19T10:49:21.012Z,7.03
2023-05-19T10:51:47.605Z,6.97
2023-05-19T10:54:17.050Z,5.80
2023-05-19T10:56:47.276Z,5.95
2023-05-19T10:59:33.727Z,7.28
2023-05-19T11:02:07.723Z,6.68
2023-05-19T11:04:54.068Z,6.18
2023-05-19T11:07:22.339Z,6.75
2023-05-19T11:09:52.672Z,6.10
2023-05-19T11:12:24.795Z,7.40
2023-05-19T11:14:55.505Z,5.17
2023-05-19T11:17:23.764Z,6.30
2023-05-19T11:19:55.121Z,5.80
2023-05-19T11:22:26.208Z,7.07
2023-05-19T11:24:55.135Z,7.22
2023-05-19T11:27:28.154Z,5.38
2023-05-19T11:29:56.374Z,7.28
2023-05-19T11:32:27.097Z,5.45
2023-05-19T11:34:55.201Z,7.07
2023-05-19T11:37:22.724Z,4.63
2023-05-19T11:39:54.465Z,5.10
2023-05-19T11:42:21.152Z,5.57
2023-05-19T11:44:47.844Z,4.50
2023-05-19T11:47:14.862Z,5.72
2023-05-19T11:49:45.934Z,6.50
2023-05-19T11:52:13.052Z,7.70
2023-05-19T11:54:41.850Z,6.13
2023-05-19T11:57:10.674Z,8.00
2023-05-19T11:59:40.572Z,5.00
2023-05-19T12:02:15.522Z,4.85
2023-05-19T12:04:42.492Z,6.72
2023-05-19T12:07:12.053Z,5.55
2023-05-19T12:09:38.640Z,4.05
2023-05-19T12:12:05.759Z,5.53
2023-05-19T12:14:32.442Z,6.65
2023-05-19T12:16:59.516Z,5.85
2023-05-19T12:19:26.564Z,5.55
2023-05-19T12:21:53.714Z,5.65
2023-05-19T12:24:20.712Z,6.30
2023-05-19T12:26:47.430Z,5.45
2023-05-19T12:29:14.041Z,4.95
2023-05-19T12:31:40.633Z,5.45
2023-05-19T12:34:07.288Z,8.35
2023-05-19T12:36:33.962Z,4.68
2023-05-19T12:39:00.817Z,5.68
2023-05-19T12:41:29.691Z,5.70
2023-05-19T12:43:58.651Z,5.38
2023-05-19T12:46:25.292Z,7.00
2023-05-19T12:48:52.005Z,6.07
2023-05-19T12:51:19.581Z,4.82
2023-05-19T12:53:47.411Z,5.78
2023-05-19T12:56:17.140Z,6.03
2023-05-19T12:58:44.098Z,5.57
2023-05-19T13:01:18.835Z,7.10
2023-05-19T13:03:46.141Z,5.78
2023-05-19T13:06:12.999Z,5.55
2023-05-19T13:08:42.169Z,6.22
2023-05-19T13:11:08.843Z,6.45
2023-05-19T13:13:35.462Z,5.65
2023-05-19T13:16:02.109Z,5.93
2023-05-19T13:18:32.117Z,4.88
2023-05-19T13:20:58.722Z,5.68
2023-05-19T13:23:30.788Z,5.82
2023-05-19T13:25:57.357Z,4.78
2023-05-19T13:28:23.940Z,5.25
2023-05-19T13:30:51.368Z,5.57
2023-05-19T13:33:18.115Z,5.95
2023-05-19T13:35:45.544Z,6.22
2023-05-19T13:38:12.256Z,4.32
2023-05-19T13:40:39.814Z,7.63
2023-05-19T13:43:09.882Z,6.50
2023-05-19T13:45:36.947Z,7.10
2023-05-19T13:48:07.810Z,6.38
2023-05-19T13:50:39.841Z,5.97
2023-05-19T13:53:06.580Z,6.22
2023-05-19T13:55:37.595Z,5.07
2023-05-19T13:58:07.089Z,6.55
2023-05-19T14:00:35.743Z,4.82
2023-05-19T14:03:09.531Z,6.25
2023-05-19T14:08:05.891Z,5.30
2023-05-19T14:10:32.728Z,5.60
2023-05-19T14:15:37.656Z,6.95
2023-05-19T14:18:05.054Z,5.90
2023-05-19T14:20:35.032Z,6.85
2023-05-19T14:23:01.951Z,5.68
2023-05-19T14:25:28.541Z,5.60
2023-05-19T14:27:55.252Z,7.57
2023-05-19T14:30:21.860Z,4.68
2023-05-19T14:32:48.497Z,5.75
2023-05-19T14:35:16.274Z,5.80
2023-05-19T14:37:46.513Z,6.35
2023-05-19T14:40:15.255Z,5.93
2023-05-19T14:42:53.852Z,8.38
2023-05-19T14:45:20.457Z,6.22
2023-05-19T14:47:47.929Z,8.07
2023-05-19T14:50:14.793Z,5.43
2023-05-19T14:52:43.282Z,6.07
2023-05-19T14:55:12.825Z,7.45
2023-05-19T14:57:39.424Z,8.35
2023-05-19T15:00:06.830Z,5.00
2023-05-19T15:02:33.470Z,6.72
2023-05-19T15:05:00.968Z,6.40
2023-05-19T15:07:27.603Z,5.38
2023-05-19T15:09:54.225Z,6.15
2023-05-19T15:12:20.853Z,6.88
2023-05-19T15:14:47.480Z,6.40
2023-05-19T15:17:14.254Z,5.90
2023-05-19T15:19:42.815Z,5.93
2023-05-19T15:22:09.413Z,4.72
2023-05-19T15:24:37.325Z,7.25
2023-05-19T15:27:06.836Z,4.32
2023-05-19T15:29:33.578Z,5.57
2023-05-19T15:32:06.501Z,5.40
2023-05-19T15:34:33.081Z,4.35
2023-05-19T15:36:59.713Z,5.40
2023-05-19T15:39:26.371Z,3.78
2023-05-19T15:41:55.248Z,3.88
2023-05-19T15:44:21.901Z,5.30
2023-05-19T15:46:48.662Z,3.90
2023-05-19T15:49:20.959Z,4.85
2023-05-19T15:51:50.891Z,5.72
2023-05-19T15:54:23.057Z,4.45
2023-05-19T15:56:49.639Z,5.60
2023-05-19T15:59:16.322Z,5.45
2023-05-19T16:01:42.992Z,5.55
2023-05-19T16:04:09.761Z,4.88
2023-05-19T16:06:36.440Z,4.40
2023-05-19T16:09:03.606Z,5.35
2023-05-19T16:11:31.711Z,6.22
2023-05-19T16:13:58.297Z,6.93
2023-05-19T16:16:24.979Z,5.25
2023-05-19T16:18:51.655Z,5.30
2023-05-19T16:21:18.279Z,6.60
2023-05-19T16:23:45.090Z,5.68
2023-05-19T16:26:11.753Z,7.60
2023-05-19T16:28:38.390Z,4.03
2023-05-19T16:31:05.095Z,7.13
2023-05-19T16:33:31.764Z,5.32
2023-05-19T16:35:59.941Z,6.00
2023-05-19T16:38:28.849Z,6.85
2023-05-19T16:40:55.522Z,4.25
2023-05-19T16:43:22.116Z,4.13
2023-05-19T16:45:48.796Z,4.30
2023-05-19T16:48:15.604Z,6.05
2023-05-19T16:50:42.304Z,5.38
2023-05-19T16:53:08.960Z,6.65
2023-05-19T16:55:35.624Z,5.00
2023-05-19T16:58:02.212Z,7.97
2023-05-19T17:00:32.364Z,4.95
2023-05-19T17:02:59.319Z,5.22
2023-05-19T17:05:27.227Z,5.55
2023-05-19T17:07:53.846Z,4.75
2023-05-19T17:10:20.443Z,5.75
2023-05-19T17:12:47.059Z,4.53
2023-05-19T17:15:13.648Z,5.10
2023-05-19T17:17:40.346Z,4.15
2023-05-19T17:20:07.830Z,3.72
2023-05-19T17:22:34.429Z,4.05
2023-05-19T17:25:01.025Z,3.22
2023-05-19T17:27:27.609Z,4.90
2023-05-19T17:29:54.196Z,3.92
2023-05-19T17:32:25.832Z,3.88
2023-05-19T17:34:52.561Z,4.78
2023-05-19T17:37:23.350Z,4.57
2023-05-19T17:39:52.878Z,6.53
2023-05-19T17:42:19.678Z,4.40
2023-05-19T17:44:48.882Z,6.50
2023-05-19T17:47:15.679Z,3.63
2023-05-19T17:49:42.279Z,6.20
2023-05-19T17:52:09.550Z,3.78
2023-05-19T17:54:38.355Z,5.70
2023-05-19T17:57:08.026Z,5.32
2023-05-19T17:59:38.949Z,4.63
2023-05-19T18:02:05.989Z,4.75
2023-05-19T18:04:33.696Z,2.42
2023-05-19T18:07:03.280Z,3.42
2023-05-19T18:09:33.164Z,4.68
2023-05-19T18:12:02.102Z,3.67
2023-05-19T18:14:37.732Z,4.40
2023-05-19T18:17:04.729Z,4.18
2023-05-19T18:19:31.398Z,3.92
2023-05-19T18:21:59.443Z,3.33
2023-05-19T18:24:28.608Z,3.80
2023-05-19T18:26:58.358Z,3.47
2023-05-19T18:29:24.966Z,6.25
2023-05-19T18:31:52.769Z,4.93
2023-05-19T18:34:25.105Z,2.85
2023-05-19T18:36:51.697Z,3.33
2023-05-19T18:39:18.400Z,4.03
2023-05-19T18:41:45.771Z,2.95
2023-05-19T18:44:12.497Z,5.10
2023-05-19T18:46:39.075Z,3.35
2023-05-19T18:49:05.662Z,4.30
2023-05-19T18:51:34.531Z,4.45
2023-05-19T18:54:04.271Z,3.10
2023-05-19T18:56:38.623Z,3.80
2023-05-19T18:59:06.455Z,3.75
2023-05-19T19:01:36.192Z,3.33
2023-05-19T19:04:09.751Z,3.13
2023-05-19T19:06:38.992Z,3.33
2023-05-19T19:09:06.813Z,4.28
2023-05-19T19:11:38.889Z,3.22
2023-05-19T19:14:11.591Z,2.88
2023-05-19T19:16:38.241Z,4.72
2023-05-19T19:19:04.887Z,3.83
2023-05-19T19:21:31.628Z,3.90
2023-05-19T19:23:58.303Z,5.72
2023-05-19T19:26:31.915Z,5.97
2023-05-19T19:29:01.923Z,3.80
2023-05-19T19:31:31.276Z,4.00
2023-05-19T19:34:02.660Z,3.72
2023-05-19T19:36:34.792Z,3.05
2023-05-19T19:39:01.659Z,4.50
2023-05-19T19:41:33.982Z,5.22
2023-05-19T19:44:00.651Z,5.55
2023-05-19T19:46:27.307Z,3.58
2023-05-19T19:48:57.245Z,4.72
2023-05-19T19:51:23.908Z,4.93
2023-05-19T19:53:50.508Z,5.13
2023-05-19T19:56:17.152Z,3.30
2023-05-19T19:58:43.825Z,4.25
2023-05-19T20:01:10.953Z,3.85
2023-05-19T20:03:37.744Z,3.35
2023-05-19T20:06:04.622Z,3.70
2023-05-19T20:08:31.228Z,4.28
2023-05-19T20:10:57.824Z,4.75
2023-05-19T20:13:24.454Z,4.85
2023-05-19T20:15:51.203Z,4.20
2023-05-19T20:18:17.965Z,3.70
2023-05-19T20:20:44.589Z,4.18
2023-05-19T20:23:12.562Z,5.15
2023-05-19T20:25:53.655Z,4.30
2023-05-19T20:28:25.840Z,3.75
2023-05-19T20:30:52.486Z,5.50
2023-05-19T20:35:15.027Z,4.90
2023-05-19T20:37:41.699Z,5.60
2023-05-19T20:40:08.675Z,3.50
2023-05-19T20:42:35.398Z,4.05
2023-05-19T20:45:01.997Z,3.33
2023-05-19T20:47:30.402Z,3.63
2023-05-19T20:49:58.802Z,5.53
2023-05-19T20:52:26.944Z,4.57
2023-05-19T20:54:53.656Z,4.45
2023-05-19T20:57:20.238Z,4.63
2023-05-19T20:59:46.944Z,3.92
2023-05-19T21:02:13.787Z,3.63
2023-05-19T21:04:40.476Z,4.05
2023-05-19T21:07:07.166Z,5.18
2023-05-19T21:09:33.802Z,6.07
2023-05-19T21:12:00.513Z,3.30
2023-05-19T21:14:27.122Z,3.75
2023-05-19T21:16:55.687Z,4.20
2023-05-19T21:19:23.134Z,5.00
2023-05-19T21:21:49.824Z,5.07
2023-05-19T21:24:16.498Z,5.68
2023-05-19T21:26:43.345Z,4.00
2023-05-19T21:29:10.346Z,4.40
2023-05-19T21:31:37.082Z,4.43
2023-05-19T21:34:04.394Z,6.10
2023-05-19T21:36:31.786Z,5.05
2023-05-19T21:38:58.433Z,4.22
2023-05-19T21:41:25.036Z,5.72
2023-05-19T21:43:51.668Z,4.43
2023-05-19T21:46:18.296Z,3.85
2023-05-19T21:48:45.055Z,6.57
2023-05-19T21:51:11.692Z,3.97
2023-05-19T21:53:38.372Z,4.60
2023-05-19T21:56:05.085Z,4.28
2023-05-19T21:58:31.698Z,6.40
2023-05-19T22:00:59.401Z,4.10
2023-05-19T22:03:26.173Z,4.70
2023-05-19T22:05:54.112Z,4.43
2023-05-19T22:08:22.326Z,4.95
2023-05-19T22:10:50.970Z,4.75
2023-05-19T22:13:17.955Z,6.70
2023-05-19T22:15:45.053Z,7.15
2023-05-19T22:18:11.880Z,4.75
2023-05-19T22:20:39.731Z,4.63
2023-05-19T22:23:06.309Z,5.75
2023-05-19T22:25:32.995Z,3.97
2023-05-19T22:28:01.216Z,3.72
2023-05-19T22:30:28.116Z,4.57
2023-05-19T22:32:56.660Z,5.05
2023-05-19T22:35:23.419Z,4.22
2023-05-19T22:37:50.040Z,3.92
2023-05-19T22:40:16.761Z,4.50
2023-05-19T22:42:43.351Z,3.90
2023-05-19T22:45:10.256Z,3.92
2023-05-19T22:47:36.918Z,3.72
2023-05-19T22:50:04.116Z,4.22
2023-05-19T22:52:30.721Z,4.93
2023-05-19T22:54:57.324Z,4.45
2023-05-19T22:57:23.908Z,3.90
2023-05-19T22:59:50.647Z,3.88
2023-05-19T23:02:17.322Z,4.18
2023-05-19T23:04:43.938Z,3.70
2023-05-19T23:07:10.626Z,4.43
2023-05-19T23:09:37.205Z,3.25
2023-05-19T23:12:03.860Z,3.15
2023-05-19T23:14:31.572Z,3.60
2023-05-19T23:16:58.218Z,5.45
2023-05-19T23:19:24.840Z,4.05
2023-05-19T23:21:51.491Z,3.85
2023-05-19T23:24:18.101Z,5.45
2023-05-19T23:26:44.917Z,3.45
2023-05-19T23:29:15.024Z,4.20
2023-05-19T23:31:41.765Z,4.97
2023-05-19T23:34:10.089Z,4.03
2023-05-19T23:36:40.061Z,3.90
2023-05-19T23:39:06.936Z,3.47
2023-05-19T23:41:33.524Z,4.93
2023-05-19T23:44:00.172Z,4.10
2023-05-19T23:46:27.005Z,3.30
2023-05-19T23:48:57.999Z,4.10
2023-05-19T23:51:24.600Z,4.60
2023-05-19T23:53:51.305Z,3.58
2023-05-19T23:56:17.901Z,3.70
2023-05-19T23:58:44.619Z,3.30
